createdAt,value
2018-05-17T00:01:09.390Z,16.55
2018-05-17T00:03:43.027Z,17.20
2018-05-17T00:06:16.844Z,16.65
2018-05-17T00:08:51.456Z,15.50
2018-05-17T00:11:25.207Z,15.40
2018-05-17T00:13:59.605Z,16.90
2018-05-17T00:16:34.153Z,16.30
2018-05-17T00:19:07.901Z,16.75
2018-05-17T00:21:41.605Z,17.65
2018-05-17T00:24:15.378Z,15.50
2018-05-17T00:26:49.042Z,15.70
2018-05-17T00:29:22.730Z,15.77
2018-05-17T00:31:57.338Z,15.45
2018-05-17T00:34:30.962Z,15.73
2018-05-17T00:37:04.779Z,13.80
2018-05-17T00:39:39.369Z,13.65
2018-05-17T00:42:13.125Z,14.55
2018-05-17T00:44:47.718Z,14.57
2018-05-17T00:47:21.287Z,13.52
2018-05-17T00:49:55.852Z,14.90
2018-05-17T00:52:29.651Z,14.07
2018-05-17T00:55:03.487Z,14.07
2018-05-17T00:57:37.349Z,13.70
2018-05-17T01:00:11.163Z,13.15
2018-05-17T01:02:44.997Z,14.18
2018-05-17T01:05:18.885Z,13.43
2018-05-17T01:07:52.685Z,14.90
2018-05-17T01:10:26.336Z,14.18
2018-05-17T01:13:00.908Z,14.43
2018-05-17T01:15:34.722Z,14.23
2018-05-17T01:18:08.491Z,14.65
2018-05-17T01:20:42.082Z,15.25
2018-05-17T01:23:15.725Z,14.60
2018-05-17T01:25:49.463Z,14.30
2018-05-17T01:28:23.216Z,14.98
2018-05-17T01:30:57.052Z,15.38
2018-05-17T01:33:30.854Z,15.10
2018-05-17T01:36:05.427Z,14.80
2018-05-17T01:38:39.081Z,15.13
2018-05-17T01:41:12.965Z,14.77
2018-05-17T01:43:46.754Z,16.60
2018-05-17T01:46:20.657Z,17.02
2018-05-17T01:48:54.540Z,18.80
2018-05-17T01:51:28.275Z,17.25
2018-05-17T01:54:02.157Z,20.55
2018-05-17T01:56:35.923Z,18.58
2018-05-17T01:59:09.667Z,18.27
2018-05-17T02:01:43.472Z,18.55
2018-05-17T02:04:17.331Z,21.62
2018-05-17T02:06:51.860Z,20.88
2018-05-17T02:09:25.638Z,20.17
2018-05-17T02:11:59.545Z,20.88
2018-05-17T02:14:33.271Z,22.65
2018-05-17T02:17:07.801Z,26.27
2018-05-17T02:19:41.564Z,25.25
2018-05-17T02:22:15.419Z,25.27
2018-05-17T02:24:49.924Z,26.17
2018-05-17T02:27:23.777Z,26.50
2018-05-17T02:29:57.567Z,26.52
2018-05-17T02:32:31.158Z,24.37
2018-05-17T02:35:05.688Z,28.17
2018-05-17T02:37:40.223Z,28.33
2018-05-17T02:40:13.813Z,28.98
2018-05-17T02:42:47.629Z,31.08
2018-05-17T02:45:21.444Z,31.90
2018-05-17T02:47:55.338Z,34.08
2018-05-17T02:50:29.948Z,31.77
2018-05-17T02:53:03.720Z,32.30
2018-05-17T02:55:38.282Z,32.30
2018-05-17T02:58:12.505Z,31.17
2018-05-17T03:00:46.244Z,32.22
2018-05-17T03:03:20.040Z,31.08
2018-05-17T03:05:54.633Z,30.02
2018-05-17T03:08:28.307Z,30.08
2018-05-17T03:11:02.868Z,32.63
2018-05-17T03:13:36.488Z,31.40
2018-05-17T03:16:10.403Z,29.73
2018-05-17T03:18:44.974Z,30.40
2018-05-17T03:21:18.592Z,28.17
2018-05-17T03:23:53.136Z,29.08
2018-05-17T03:26:26.992Z,31.37
2018-05-17T03:29:00.588Z,29.35
2018-05-17T03:31:34.220Z,29.02
2018-05-17T03:34:08.006Z,30.35
2018-05-17T03:36:42.470Z,28.92
2018-05-17T03:39:16.296Z,30.33
2018-05-17T03:41:50.151Z,27.85
2018-05-17T03:44:23.947Z,29.85
2018-05-17T03:46:57.583Z,29.20
2018-05-17T03:49:31.337Z,28.70
2018-05-17T03:52:05.143Z,27.02
2018-05-17T03:54:38.825Z,25.33
2018-05-17T03:57:12.708Z,26.58
2018-05-17T03:59:46.452Z,27.00
2018-05-17T04:02:32.310Z,25.62
2018-05-17T04:05:18.851Z,24.58
2018-05-17T04:07:52.613Z,26.80
2018-05-17T04:10:26.477Z,24.80
2018-05-17T04:13:00.181Z,25.12
2018-05-17T04:15:34.728Z,23.15
2018-05-17T04:18:09.376Z,24.48
2018-05-17T04:20:43.017Z,24.55
2018-05-17T04:23:16.904Z,22.98
2018-05-17T04:25:51.507Z,24.35
2018-05-17T04:28:25.324Z,23.12
2018-05-17T04:30:59.243Z,22.25
2018-05-17T04:33:33.087Z,22.62
2018-05-17T04:36:06.917Z,23.70
2018-05-17T04:38:40.731Z,23.00
2018-05-17T04:41:14.547Z,22.85
2018-05-17T04:43:48.306Z,24.80
2018-05-17T04:46:21.945Z,22.80
2018-05-17T04:48:55.606Z,20.92
2018-05-17T04:51:29.391Z,21.67
2018-05-17T04:54:03.287Z,18.90
2018-05-17T04:56:36.964Z,21.60
2018-05-17T04:59:10.852Z,21.05
2018-05-17T05:01:45.513Z,21.73
2018-05-17T05:04:23.790Z,20.40
2018-05-17T05:07:00.897Z,21.75
2018-05-17T05:09:34.521Z,23.87
2018-05-17T05:12:09.110Z,24.42
2018-05-17T05:14:42.832Z,26.42
2018-05-17T05:17:16.643Z,27.10
2018-05-17T05:19:50.496Z,29.37
2018-05-17T05:22:24.271Z,28.55
2018-05-17T05:24:58.040Z,32.78
2018-05-17T05:27:31.948Z,30.30
2018-05-17T05:30:05.641Z,40.40
2018-05-17T05:32:40.205Z,33.05
2018-05-17T05:35:14.105Z,33.63
2018-05-17T05:37:47.748Z,32.38
2018-05-17T05:40:21.637Z,32.97
2018-05-17T05:42:55.320Z,35.40
2018-05-17T05:45:29.929Z,34.15
2018-05-17T05:48:03.710Z,34.80
2018-05-17T05:50:38.215Z,33.58
2018-05-17T05:53:12.780Z,40.40
2018-05-17T05:55:46.510Z,36.28
2018-05-17T05:58:20.360Z,37.20
2018-05-17T06:00:54.144Z,34.80
2018-05-17T06:03:27.955Z,36.10
2018-05-17T06:06:01.687Z,35.60
2018-05-17T06:08:35.397Z,42.85
2018-05-17T06:11:09.209Z,43.50
2018-05-17T06:13:43.013Z,35.90
2018-05-17T06:16:16.879Z,38.65
2018-05-17T06:18:50.616Z,35.65
2018-05-17T06:21:25.174Z,37.25
2018-05-17T06:23:58.948Z,37.88
2018-05-17T06:26:32.833Z,39.20
2018-05-17T06:29:06.560Z,37.33
2018-05-17T06:31:40.469Z,38.45
2018-05-17T06:34:14.313Z,37.03
2018-05-17T06:36:48.834Z,43.05
2018-05-17T06:39:22.521Z,39.63
2018-05-17T06:41:56.380Z,38.50
2018-05-17T06:44:30.157Z,41.85
2018-05-17T06:47:04.535Z,46.30
2018-05-17T06:49:38.252Z,37.10
2018-05-17T06:52:12.083Z,39.60
2018-05-17T06:54:45.898Z,35.17
2018-05-17T06:57:19.686Z,35.20
2018-05-17T06:59:54.147Z,32.97
2018-05-17T07:02:27.819Z,31.92
2018-05-17T07:05:01.733Z,35.20
2018-05-17T07:07:35.468Z,32.45
2018-05-17T07:10:09.290Z,30.73
2018-05-17T07:12:42.930Z,30.98
2018-05-17T07:15:16.772Z,29.25
2018-05-17T07:17:50.486Z,27.33
2018-05-17T07:20:24.260Z,32.67
2018-05-17T07:22:58.191Z,30.50
2018-05-17T07:25:32.648Z,30.85
2018-05-17T07:28:06.396Z,30.17
2018-05-17T07:30:40.162Z,28.98
2018-05-17T07:33:13.921Z,30.10
2018-05-17T07:35:47.673Z,31.60
2018-05-17T07:38:21.446Z,36.63
2018-05-17T07:40:55.159Z,28.52
2018-05-17T07:43:30.632Z,28.55
2018-05-17T07:46:04.384Z,29.95
2018-05-17T07:48:38.157Z,28.77
2018-05-17T07:51:12.653Z,26.60
2018-05-17T07:53:46.308Z,27.33
2018-05-17T07:56:20.772Z,25.27
2018-05-17T07:58:55.216Z,25.90
2018-05-17T08:01:29.068Z,25.27
2018-05-17T08:04:02.664Z,22.13
2018-05-17T08:06:36.452Z,23.15
2018-05-17T08:09:10.291Z,22.27
2018-05-17T08:11:44.123Z,21.20
2018-05-17T08:14:17.941Z,22.60
2018-05-17T08:16:51.680Z,22.77
2018-05-17T08:19:25.535Z,20.00
2018-05-17T08:21:59.314Z,20.58
2018-05-17T08:24:33.170Z,22.23
2018-05-17T08:27:09.541Z,23.60
2018-05-17T08:29:43.960Z,25.95
2018-05-17T08:32:17.792Z,23.75
2018-05-17T08:34:51.630Z,27.30
2018-05-17T08:37:26.175Z,29.40
2018-05-17T08:40:00.734Z,26.48
2018-05-17T08:42:34.309Z,25.90
2018-05-17T08:45:08.170Z,29.48
2018-05-17T08:47:41.935Z,28.75
2018-05-17T08:50:15.716Z,33.92
2018-05-17T08:52:53.335Z,35.03
2018-05-17T08:55:27.020Z,32.30
2018-05-17T08:58:00.831Z,36.30
2018-05-17T09:00:34.658Z,37.10
2018-05-17T09:03:09.176Z,37.83
2018-05-17T09:05:43.719Z,35.60
2018-05-17T09:08:18.084Z,37.42
2018-05-17T09:10:51.728Z,37.05
2018-05-17T09:13:25.535Z,41.30
2018-05-17T09:15:59.390Z,39.42
2018-05-17T09:18:33.990Z,42.03
2018-05-17T09:21:07.557Z,37.42
2018-05-17T09:23:42.096Z,38.10
2018-05-17T09:26:15.817Z,44.45
2018-05-17T09:28:50.311Z,38.40
2018-05-17T09:31:23.948Z,41.75
2018-05-17T09:33:57.795Z,44.03
2018-05-17T09:36:31.516Z,37.15
2018-05-17T09:39:06.313Z,37.90
2018-05-17T09:41:40.117Z,40.90
2018-05-17T09:44:13.881Z,37.00
2018-05-17T09:46:47.642Z,38.55
2018-05-17T09:49:21.502Z,34.58
2018-05-17T09:51:55.419Z,37.88
2018-05-17T09:54:29.918Z,39.88
2018-05-17T09:57:03.529Z,38.95
2018-05-17T09:59:37.345Z,37.38
2018-05-17T10:02:11.959Z,36.83
2018-05-17T10:04:45.811Z,34.22
2018-05-17T10:07:19.596Z,37.20
2018-05-17T10:09:54.195Z,31.02
2018-05-17T10:12:27.888Z,34.88
2018-05-17T10:15:01.881Z,31.10
2018-05-17T10:17:35.480Z,30.65
2018-05-17T10:20:09.307Z,31.67
2018-05-17T10:22:42.960Z,35.85
2018-05-17T10:25:17.502Z,28.52
2018-05-17T10:27:51.379Z,39.95
2018-05-17T10:30:25.216Z,33.15
2018-05-17T10:32:58.794Z,33.70
2018-05-17T10:35:33.345Z,29.65
2018-05-17T10:38:07.052Z,35.17
2018-05-17T10:40:40.869Z,29.80
2018-05-17T10:43:15.484Z,30.83
2018-05-17T10:45:49.352Z,35.08
2018-05-17T10:48:23.143Z,29.60
2018-05-17T10:50:57.921Z,32.25
2018-05-17T10:53:31.724Z,29.70
2018-05-17T10:56:05.488Z,27.40
2018-05-17T10:58:39.299Z,34.42
2018-05-17T11:01:13.107Z,39.63
2018-05-17T11:03:46.893Z,33.55
2018-05-17T11:06:20.781Z,31.92
2018-05-17T11:08:55.756Z,32.03
2018-05-17T11:11:29.582Z,31.25
2018-05-17T11:14:03.326Z,32.20
2018-05-17T11:16:37.004Z,29.67
2018-05-17T11:19:11.600Z,29.12
2018-05-17T11:21:46.215Z,38.30
2018-05-17T11:24:19.864Z,30.83
2018-05-17T11:26:53.676Z,31.20
2018-05-17T11:29:27.449Z,38.20
2018-05-17T11:32:02.004Z,34.47
2018-05-17T11:34:36.497Z,38.47
2018-05-17T11:37:10.157Z,30.55
2018-05-17T11:39:43.883Z,28.20
2018-05-17T11:42:17.658Z,34.58
2018-05-17T11:44:51.556Z,31.10
2018-05-17T11:47:25.405Z,31.42
2018-05-17T11:49:59.217Z,31.52
2018-05-17T11:52:33.041Z,32.78
2018-05-17T11:55:06.948Z,29.77
2018-05-17T11:57:41.469Z,31.20
2018-05-17T12:00:15.078Z,29.42
2018-05-17T12:02:48.886Z,33.03
2018-05-17T12:05:22.664Z,29.67
2018-05-17T12:07:56.425Z,29.63
2018-05-17T12:10:30.137Z,30.08
2018-05-17T12:13:03.901Z,30.77
2018-05-17T12:15:37.724Z,28.27
2018-05-17T12:18:11.649Z,33.35
2018-05-17T12:20:45.444Z,30.00
2018-05-17T12:23:19.214Z,32.95
2018-05-17T12:25:53.819Z,35.15
2018-05-17T12:28:27.616Z,34.67
2018-05-17T12:31:01.468Z,28.27
2018-05-17T12:33:35.163Z,29.80
2018-05-17T12:36:08.844Z,38.35
2018-05-17T12:38:42.629Z,31.23
2018-05-17T12:41:16.667Z,29.20
2018-05-17T12:43:50.264Z,32.92
2018-05-17T12:46:24.044Z,27.35
2018-05-17T12:48:58.699Z,28.38
2018-05-17T12:51:33.190Z,32.38
2018-05-17T12:54:07.028Z,31.25
2018-05-17T12:56:41.622Z,36.83
2018-05-17T12:59:15.321Z,28.77
2018-05-17T13:01:49.117Z,33.00
2018-05-17T13:04:23.739Z,26.70
2018-05-17T13:06:57.549Z,28.85
2018-05-17T13:09:31.261Z,26.42
2018-05-17T13:12:05.160Z,27.08
2018-05-17T13:14:38.951Z,27.60
2018-05-17T13:17:13.613Z,29.42
2018-05-17T13:19:47.304Z,29.40
2018-05-17T13:22:21.186Z,23.95
2018-05-17T13:24:54.986Z,27.08
2018-05-17T13:27:28.685Z,24.55
2018-05-17T13:30:03.260Z,29.42
2018-05-17T13:32:36.980Z,26.98
2018-05-17T13:35:10.868Z,28.75
2018-05-17T13:37:44.863Z,24.15
2018-05-17T13:40:18.534Z,28.73
2018-05-17T13:42:52.352Z,25.40
2018-05-17T13:45:26.110Z,27.48
2018-05-17T13:47:59.989Z,25.42
2018-05-17T13:50:33.757Z,30.00
2018-05-17T13:53:10.016Z,22.80
2018-05-17T13:55:44.912Z,24.60
2018-05-17T13:58:18.953Z,23.58
2018-05-17T14:00:53.575Z,21.83
2018-05-17T14:03:27.339Z,26.40
2018-05-17T14:06:01.182Z,23.62
2018-05-17T14:08:34.968Z,24.25
2018-05-17T14:11:08.749Z,24.15
2018-05-17T14:13:42.492Z,23.12
2018-05-17T14:16:16.257Z,21.48
2018-05-17T14:18:50.052Z,24.95
2018-05-17T14:21:23.784Z,22.45
2018-05-17T14:23:58.395Z,20.27
2018-05-17T14:26:32.148Z,22.27
2018-05-17T14:29:05.936Z,23.60
2018-05-17T14:31:39.925Z,23.17
2018-05-17T14:34:14.437Z,23.83
2018-05-17T14:36:50.005Z,21.50
2018-05-17T14:39:24.417Z,25.92
2018-05-17T14:41:58.236Z,20.20
2018-05-17T14:44:32.812Z,24.85
2018-05-17T14:47:06.528Z,24.27
2018-05-17T14:49:40.382Z,24.25
2018-05-17T14:52:14.194Z,22.05
2018-05-17T14:54:48.708Z,20.23
2018-05-17T14:57:22.564Z,21.08
2018-05-17T14:59:56.348Z,21.25
2018-05-17T15:02:30.179Z,24.58
2018-05-17T15:05:04.055Z,20.77
2018-05-17T15:07:37.824Z,18.40
2018-05-17T15:10:11.600Z,21.67
2018-05-17T15:12:45.220Z,21.87
2018-05-17T15:15:19.041Z,21.80
2018-05-17T15:17:52.800Z,21.27
2018-05-17T15:20:26.690Z,21.40
2018-05-17T15:23:00.491Z,22.02
2018-05-17T15:25:35.073Z,25.50
2018-05-17T15:28:08.677Z,20.62
2018-05-17T15:30:42.495Z,27.25
2018-05-17T15:33:16.349Z,19.42
2018-05-17T15:35:50.090Z,26.10
2018-05-17T15:38:23.905Z,26.67
2018-05-17T15:40:58.427Z,22.30
2018-05-17T15:43:33.056Z,18.10
2018-05-17T15:46:06.721Z,17.75
2018-05-17T15:48:40.567Z,17.10
2018-05-17T15:51:14.366Z,17.15
2018-05-17T15:53:48.170Z,16.55
2018-05-17T15:56:21.770Z,19.65
2018-05-17T15:58:56.401Z,19.25
2018-05-17T16:01:31.201Z,16.60
2018-05-17T16:04:04.955Z,21.08
2018-05-17T16:06:38.724Z,19.35
2018-05-17T16:09:12.557Z,44.45
2018-05-17T16:11:46.246Z,19.05
2018-05-17T16:14:20.040Z,15.75
2018-05-17T16:16:53.873Z,14.65
2018-05-17T16:19:27.648Z,11.60
2018-05-17T16:22:01.828Z,13.20
2018-05-17T16:24:35.665Z,17.20
2018-05-17T16:27:10.282Z,13.90
2018-05-17T16:29:44.105Z,12.57
2018-05-17T16:32:17.968Z,16.75
2018-05-17T16:34:52.428Z,15.05
2018-05-17T16:37:26.176Z,16.40
2018-05-17T16:39:59.932Z,11.77
2018-05-17T16:42:33.711Z,11.12
2018-05-17T16:45:07.409Z,15.90
2018-05-17T16:47:41.286Z,12.10
2018-05-17T16:50:16.340Z,13.02
2018-05-17T16:52:50.138Z,13.00
2018-05-17T16:55:24.346Z,12.85
2018-05-17T16:57:58.181Z,11.18
2018-05-17T17:00:32.129Z,14.85
2018-05-17T17:03:05.954Z,19.90
2018-05-17T17:05:39.888Z,16.42
2018-05-17T17:08:13.612Z,10.65
2018-05-17T17:10:48.103Z,19.17
2018-05-17T17:13:21.792Z,13.85
2018-05-17T17:15:55.626Z,14.13
2018-05-17T17:18:30.104Z,13.13
2018-05-17T17:21:03.910Z,14.10
2018-05-17T17:23:38.016Z,14.63
2018-05-17T17:26:11.833Z,12.70
2018-05-17T17:28:46.372Z,14.55
2018-05-17T17:31:20.914Z,11.95
2018-05-17T17:33:54.588Z,18.10
2018-05-17T17:36:28.519Z,16.35
2018-05-17T17:39:03.116Z,19.58
2018-05-17T17:41:36.977Z,16.25
2018-05-17T17:44:10.798Z,19.23
2018-05-17T17:46:44.594Z,14.40
2018-05-17T17:49:19.176Z,17.73
2018-05-17T17:51:53.800Z,20.00
2018-05-17T17:54:28.397Z,21.00
2018-05-17T17:57:02.847Z,20.60
2018-05-17T17:59:36.469Z,18.83
2018-05-17T18:02:10.235Z,25.08
2018-05-17T18:04:44.789Z,19.52
2018-05-17T18:07:18.682Z,19.33
2018-05-17T18:09:53.185Z,21.67
2018-05-17T18:12:26.984Z,28.35
2018-05-17T18:15:01.398Z,19.30
2018-05-17T18:17:35.013Z,25.95
2018-05-17T18:20:08.812Z,18.37
2018-05-17T18:22:42.669Z,28.05
2018-05-17T18:25:16.745Z,35.08
2018-05-17T18:27:50.488Z,20.88
2018-05-17T18:30:25.040Z,23.77
2018-05-17T18:32:58.733Z,28.25
2018-05-17T18:35:33.200Z,28.08
2018-05-17T18:38:07.739Z,22.73
2018-05-17T18:40:41.461Z,24.15
2018-05-17T18:43:15.277Z,22.20
2018-05-17T18:45:49.075Z,19.33
2018-05-17T18:48:23.662Z,17.98
2018-05-17T18:50:57.435Z,22.00
2018-05-17T18:53:31.209Z,18.95
2018-05-17T18:56:05.006Z,20.12
2018-05-17T18:58:38.802Z,16.10
2018-05-17T19:01:12.618Z,18.73
2018-05-17T19:03:46.281Z,17.17
2018-05-17T19:06:20.820Z,22.20
2018-05-17T19:08:54.560Z,17.92
2018-05-17T19:11:28.312Z,17.98
2018-05-17T19:14:02.240Z,23.15
2018-05-17T19:16:36.052Z,21.85
2018-05-17T19:19:09.800Z,23.92
2018-05-17T19:21:44.391Z,22.08
2018-05-17T19:24:18.167Z,20.02
2018-05-17T19:26:52.701Z,21.52
2018-05-17T19:29:27.341Z,20.35
2018-05-17T19:32:01.095Z,23.98
2018-05-17T19:34:34.751Z,25.45
2018-05-17T19:37:08.647Z,24.20
2018-05-17T19:39:43.040Z,23.90
2018-05-17T19:42:16.764Z,24.00
2018-05-17T19:44:50.584Z,30.35
2018-05-17T19:47:24.428Z,24.12
2018-05-17T19:49:59.001Z,26.62
2018-05-17T19:52:32.745Z,31.15
2018-05-17T19:55:06.392Z,28.17
2018-05-17T19:57:40.259Z,23.10
2018-05-17T20:00:14.264Z,22.10
2018-05-17T20:02:48.135Z,20.35
2018-05-17T20:05:21.960Z,20.95
2018-05-17T20:07:55.784Z,19.85
2018-05-17T20:10:29.462Z,28.67
2018-05-17T20:13:03.287Z,30.62
2018-05-17T20:15:37.063Z,24.33
2018-05-17T20:18:10.901Z,24.02
2018-05-17T20:20:44.716Z,26.77
2018-05-17T20:23:19.311Z,27.45
2018-05-17T20:25:53.824Z,25.62
2018-05-17T20:28:27.560Z,28.83
2018-05-17T20:31:01.396Z,25.65
2018-05-17T20:33:35.198Z,34.88
2018-05-17T20:36:09.832Z,25.12
2018-05-17T20:38:43.573Z,25.02
2018-05-17T20:41:17.375Z,23.35
2018-05-17T20:43:51.004Z,22.00
2018-05-17T20:46:24.716Z,24.98
2018-05-17T20:48:58.572Z,26.92
2018-05-17T20:51:32.411Z,21.25
2018-05-17T20:54:06.183Z,24.80
2018-05-17T20:56:40.023Z,24.87
2018-05-17T20:59:13.785Z,27.98
2018-05-17T21:01:47.473Z,26.75
2018-05-17T21:04:22.025Z,25.40
2018-05-17T21:06:55.676Z,26.73
2018-05-17T21:09:29.353Z,29.02
2018-05-17T21:12:02.984Z,25.67
2018-05-17T21:14:37.664Z,23.95
2018-05-17T21:17:11.423Z,23.85
2018-05-17T21:19:45.976Z,27.27
2018-05-17T21:22:19.612Z,32.17
2018-05-17T21:24:54.243Z,28.45
2018-05-17T21:27:28.038Z,23.85
2018-05-17T21:30:01.849Z,26.15
2018-05-17T21:32:35.639Z,30.52
2018-05-17T21:35:09.478Z,27.10
2018-05-17T21:37:43.188Z,27.80
2018-05-17T21:40:17.580Z,24.70
2018-05-17T21:42:52.108Z,30.48
2018-05-17T21:45:25.949Z,28.08
2018-05-17T21:48:00.547Z,31.02
2018-05-17T21:50:34.336Z,27.58
2018-05-17T21:53:08.073Z,30.23
2018-05-17T21:55:41.676Z,28.50
2018-05-17T21:58:15.322Z,25.70
2018-05-17T22:00:49.888Z,29.87
2018-05-17T22:03:23.703Z,26.00
2018-05-17T22:05:57.305Z,27.48
2018-05-17T22:08:31.038Z,30.27
2018-05-17T22:11:05.595Z,29.95
2018-05-17T22:13:39.465Z,26.52
2018-05-17T22:16:13.314Z,31.00
2018-05-17T22:18:47.086Z,26.17
2018-05-17T22:21:20.746Z,30.42
2018-05-17T22:23:55.357Z,31.27
2018-05-17T22:26:29.901Z,36.17
2018-05-17T22:29:03.696Z,30.42
2018-05-17T22:31:37.421Z,33.95
2018-05-17T22:34:11.160Z,30.12
2018-05-17T22:36:45.796Z,31.87
2018-05-17T22:39:20.313Z,33.42
2018-05-17T22:41:54.107Z,30.10
2018-05-17T22:44:28.652Z,29.92
2018-05-17T22:47:02.396Z,35.35
2018-05-17T22:49:36.167Z,32.22
2018-05-17T22:52:09.971Z,33.40
2018-05-17T22:54:43.789Z,32.78
2018-05-17T22:57:29.536Z,30.08
2018-05-17T23:00:04.090Z,38.55
2018-05-17T23:02:38.642Z,28.85
2018-05-17T23:05:12.466Z,34.00
2018-05-17T23:07:46.336Z,27.83
2018-05-17T23:10:20.128Z,31.27
2018-05-17T23:12:54.636Z,31.70
2018-05-17T23:15:29.090Z,31.40
2018-05-17T23:18:02.936Z,29.87
2018-05-17T23:20:36.715Z,26.70
2018-05-17T23:23:10.565Z,31.62
2018-05-17T23:25:44.346Z,28.98
2018-05-17T23:28:18.949Z,29.52
2018-05-17T23:30:52.660Z,26.92
2018-05-17T23:33:26.328Z,28.85
2018-05-17T23:36:00.124Z,29.50
2018-05-17T23:38:33.795Z,24.73
2018-05-17T23:41:19.715Z,25.33
2018-05-17T23:43:53.452Z,28.45
2018-05-17T23:46:27.156Z,27.67
2018-05-17T23:49:00.964Z,24.40
2018-05-17T23:51:34.740Z,27.42
2018-05-17T23:54:09.388Z,21.40
2018-05-17T23:56:43.222Z,26.98
2018-05-17T23:59:17.032Z,26.00
